createdAt,value
2022-09-16T00:00:54.712Z,26.40
2022-09-16T00:03:22.441Z,26.40
2022-09-16T00:05:52.201Z,26.40
2022-09-16T00:08:21.375Z,26.40
2022-09-16T00:10:49.282Z,26.40
2022-09-16T00:13:19.385Z,26.40
2022-09-16T00:15:50.642Z,26.40
2022-09-16T00:18:18.503Z,26.40
2022-09-16T00:20:47.588Z,26.40
2022-09-16T00:23:15.470Z,26.40
2022-09-16T00:25:43.173Z,26.40
2022-09-16T00:28:11.097Z,26.40
2022-09-16T00:30:40.145Z,26.40
2022-09-16T00:33:09.399Z,26.40
2022-09-16T00:35:37.117Z,26.40
2022-09-16T00:38:04.828Z,26.40
2022-09-16T00:40:32.694Z,26.40
2022-09-16T00:43:01.034Z,26.30
2022-09-16T00:45:31.542Z,26.40
2022-09-16T00:48:02.785Z,26.40
2022-09-16T00:50:38.346Z,26.40
2022-09-16T00:53:07.073Z,26.40
2022-09-16T00:55:38.052Z,26.40
2022-09-16T00:58:10.037Z,26.40
2022-09-16T01:00:38.246Z,26.40
2022-09-16T01:03:07.611Z,26.40
2022-09-16T01:05:36.865Z,26.40
2022-09-16T01:08:05.399Z,26.40
2022-09-16T01:10:33.117Z,26.40
2022-09-16T01:13:03.819Z,26.40
2022-09-16T01:15:37.916Z,26.40
2022-09-16T01:18:15.291Z,26.40
2022-09-16T01:21:17.236Z,26.40
2022-09-16T01:24:08.123Z,26.40
2022-09-16T01:26:55.060Z,26.40
2022-09-16T01:29:45.891Z,26.30
2022-09-16T01:32:20.693Z,26.30
2022-09-16T01:34:54.592Z,26.30
2022-09-16T01:37:32.725Z,26.30
2022-09-16T01:40:08.504Z,26.30
2022-09-16T01:42:42.840Z,26.30
2022-09-16T01:45:19.278Z,26.30
2022-09-16T01:47:57.832Z,26.30
2022-09-16T01:50:31.275Z,26.30
2022-09-16T01:53:10.451Z,26.30
2022-09-16T01:55:41.988Z,26.30
2022-09-16T01:58:16.642Z,26.30
2022-09-16T02:00:47.185Z,26.30
2022-09-16T02:03:19.824Z,26.30
2022-09-16T02:05:52.799Z,26.30
2022-09-16T02:08:27.275Z,26.30
2022-09-16T02:10:59.455Z,26.30
2022-09-16T02:13:31.606Z,26.30
2022-09-16T02:16:04.614Z,26.30
2022-09-16T02:18:36.539Z,26.30
2022-09-16T02:21:08.062Z,26.30
2022-09-16T02:23:40.303Z,26.30
2022-09-16T02:26:12.339Z,26.30
2022-09-16T02:28:43.166Z,26.30
2022-09-16T02:31:13.694Z,26.30
2022-09-16T02:33:48.509Z,26.30
2022-09-16T02:36:21.252Z,26.30
2022-09-16T02:38:54.064Z,26.30
2022-09-16T02:41:21.849Z,26.30
2022-09-16T02:43:49.571Z,26.30
2022-09-16T02:46:27.212Z,26.30
2022-09-16T02:49:02.995Z,26.30
2022-09-16T02:51:38.321Z,26.30
2022-09-16T02:54:13.355Z,26.30
2022-09-16T02:56:42.867Z,26.30
2022-09-16T02:59:13.711Z,26.30
2022-09-16T03:01:44.998Z,26.30
2022-09-16T03:04:16.209Z,26.30
2022-09-16T03:06:44.185Z,26.30
2022-09-16T03:09:13.925Z,26.30
2022-09-16T03:12:07.975Z,26.30
2022-09-16T03:14:55.718Z,26.30
2022-09-16T03:17:41.915Z,26.30
2022-09-16T03:20:21.736Z,26.30
2022-09-16T03:22:56.617Z,26.30
2022-09-16T03:25:33.546Z,26.30
2022-09-16T03:28:05.360Z,26.30
2022-09-16T03:30:36.796Z,26.30
2022-09-16T03:33:09.301Z,26.30
2022-09-16T03:35:44.645Z,26.30
2022-09-16T03:38:14.435Z,26.30
2022-09-16T03:40:43.881Z,26.30
2022-09-16T03:43:12.819Z,26.30
2022-09-16T03:45:42.581Z,26.30
2022-09-16T03:48:11.608Z,26.30
2022-09-16T03:50:41.000Z,26.30
2022-09-16T03:53:08.852Z,26.30
2022-09-16T03:55:36.649Z,26.30
2022-09-16T03:58:04.658Z,26.30
2022-09-16T04:00:32.896Z,26.30
2022-09-16T04:03:01.792Z,26.30
2022-09-16T04:05:29.499Z,26.30
2022-09-16T04:07:58.634Z,26.30
2022-09-16T04:10:26.359Z,26.30
2022-09-16T04:12:58.008Z,26.30
2022-09-16T04:15:25.685Z,26.30
2022-09-16T04:17:53.551Z,26.20
2022-09-16T04:20:21.304Z,26.20
2022-09-16T04:22:49.187Z,26.20
2022-09-16T04:25:18.369Z,26.20
2022-09-16T04:27:46.036Z,26.20
2022-09-16T04:30:14.684Z,26.20
2022-09-16T04:32:42.577Z,26.20
2022-09-16T04:35:10.755Z,26.20
2022-09-16T04:37:38.493Z,26.20
2022-09-16T04:40:07.397Z,26.20
2022-09-16T04:42:36.469Z,26.20
2022-09-16T04:45:04.613Z,26.20
2022-09-16T04:47:32.557Z,26.20
2022-09-16T04:50:00.279Z,26.20
2022-09-16T04:52:30.797Z,26.20
2022-09-16T04:54:58.499Z,26.20
2022-09-16T04:57:26.188Z,26.20
2022-09-16T04:59:55.182Z,26.20
2022-09-16T05:02:22.973Z,26.20
2022-09-16T05:04:50.688Z,26.20
2022-09-16T05:07:18.396Z,26.20
2022-09-16T05:09:46.149Z,26.20
2022-09-16T05:12:13.974Z,26.20
2022-09-16T05:14:41.685Z,26.30
2022-09-16T05:17:11.110Z,26.30
2022-09-16T05:19:38.877Z,26.30
2022-09-16T05:22:07.267Z,26.30
2022-09-16T05:24:36.337Z,26.30
2022-09-16T05:27:04.398Z,26.30
2022-09-16T05:29:32.090Z,26.30
2022-09-16T05:31:59.800Z,26.20
2022-09-16T05:34:29.181Z,26.30
2022-09-16T05:36:57.299Z,26.20
2022-09-16T05:39:26.237Z,26.30
2022-09-16T05:41:56.377Z,26.20
2022-09-16T05:44:24.280Z,26.20
2022-09-16T05:46:52.023Z,26.20
2022-09-16T05:49:20.775Z,26.20
2022-09-16T05:51:50.734Z,26.20
2022-09-16T05:54:19.295Z,26.20
2022-09-16T05:56:47.987Z,26.20
2022-09-16T05:59:16.713Z,26.20
2022-09-16T06:01:45.333Z,26.20
2022-09-16T06:04:14.903Z,26.20
2022-09-16T06:06:44.051Z,26.20
2022-09-16T06:09:14.812Z,26.20
2022-09-16T06:11:44.874Z,26.20
2022-09-16T06:14:14.155Z,26.20
2022-09-16T06:16:42.145Z,26.20
2022-09-16T06:19:13.800Z,26.20
2022-09-16T06:21:43.554Z,26.20
2022-09-16T06:24:12.872Z,26.20
2022-09-16T06:26:42.218Z,26.20
2022-09-16T06:29:10.905Z,26.20
2022-09-16T06:31:39.178Z,26.20
2022-09-16T06:34:08.103Z,26.20
2022-09-16T06:36:40.385Z,26.20
2022-09-16T06:39:14.044Z,26.20
2022-09-16T06:41:41.836Z,26.20
2022-09-16T06:44:09.737Z,26.20
2022-09-16T06:46:38.115Z,26.20
2022-09-16T06:49:06.716Z,26.20
2022-09-16T06:51:35.431Z,26.20
2022-09-16T06:54:05.503Z,26.20
2022-09-16T06:56:36.136Z,26.20
2022-09-16T06:59:04.331Z,26.20
2022-09-16T07:01:33.146Z,26.20
2022-09-16T07:04:05.305Z,26.20
2022-09-16T07:06:58.260Z,26.20
2022-09-16T07:09:22.157Z,26.30
2022-09-16T07:11:51.206Z,26.30
2022-09-16T07:14:18.891Z,26.20
2022-09-16T07:16:46.613Z,26.30
2022-09-16T07:19:14.348Z,26.30
2022-09-16T07:21:42.033Z,26.30
2022-09-16T07:24:12.422Z,26.30
2022-09-16T07:26:41.744Z,26.30
2022-09-16T07:29:13.906Z,26.30
2022-09-16T07:31:42.303Z,26.30
2022-09-16T07:34:11.868Z,26.30
2022-09-16T07:36:41.741Z,26.30
2022-09-16T07:39:10.301Z,26.30
2022-09-16T07:41:40.080Z,26.30
2022-09-16T07:44:08.786Z,26.30
2022-09-16T07:46:38.235Z,26.30
2022-09-16T07:49:08.448Z,26.30
2022-09-16T07:51:36.407Z,26.30
2022-09-16T07:54:06.424Z,26.30
2022-09-16T07:56:37.180Z,26.30
2022-09-16T07:59:07.875Z,26.30
2022-09-16T08:01:41.340Z,26.30
2022-09-16T08:04:11.989Z,26.30
2022-09-16T08:06:40.665Z,26.30
2022-09-16T08:09:36.838Z,26.30
2022-09-16T08:11:56.481Z,26.30
2022-09-16T08:14:24.208Z,26.30
2022-09-16T08:16:53.336Z,26.30
2022-09-16T08:19:22.476Z,26.30
2022-09-16T08:21:50.180Z,26.30
2022-09-16T08:24:17.889Z,26.40
2022-09-16T08:26:45.641Z,26.30
2022-09-16T08:29:13.789Z,26.30
2022-09-16T08:31:41.805Z,26.30
2022-09-16T08:34:10.819Z,26.40
2022-09-16T08:36:38.614Z,26.30
2022-09-16T08:39:06.495Z,26.40
2022-09-16T08:41:48.305Z,26.40
2022-09-16T08:44:24.268Z,26.40
2022-09-16T08:46:55.800Z,26.40
2022-09-16T08:49:32.737Z,26.40
2022-09-16T08:52:04.261Z,26.40
2022-09-16T08:54:38.096Z,26.40
2022-09-16T08:57:09.573Z,26.40
2022-09-16T08:59:44.340Z,26.40
2022-09-16T09:02:28.159Z,26.40
2022-09-16T09:04:59.026Z,26.40
2022-09-16T09:07:34.929Z,26.40
2022-09-16T09:10:14.258Z,26.40
2022-09-16T09:12:50.008Z,26.40
2022-09-16T09:15:37.441Z,26.40
2022-09-16T09:18:21.969Z,26.40
2022-09-16T09:20:57.680Z,26.40
2022-09-16T09:23:44.074Z,26.40
2022-09-16T09:26:21.121Z,26.40
2022-09-16T09:29:04.476Z,26.40
2022-09-16T09:31:44.692Z,26.40
2022-09-16T09:34:31.333Z,26.40
2022-09-16T09:37:14.354Z,26.40
2022-09-16T09:40:01.473Z,26.50
2022-09-16T09:42:32.733Z,26.50
2022-09-16T09:45:04.755Z,26.50
2022-09-16T09:47:36.115Z,26.50
2022-09-16T09:50:16.227Z,26.40
2022-09-16T09:52:49.609Z,26.50
2022-09-16T09:55:20.398Z,26.50
2022-09-16T09:58:11.616Z,26.50
2022-09-16T10:00:39.402Z,26.50
2022-09-16T10:03:10.994Z,26.50
2022-09-16T10:05:39.258Z,26.50
2022-09-16T10:08:16.960Z,26.50
2022-09-16T10:10:49.748Z,26.40
2022-09-16T10:13:19.336Z,26.50
2022-09-16T10:15:51.936Z,26.50
2022-09-16T10:18:29.568Z,26.50
2022-09-16T10:21:05.815Z,26.50
2022-09-16T10:23:36.182Z,26.50
2022-09-16T10:26:19.082Z,26.50
2022-09-16T10:29:01.869Z,26.50
2022-09-16T10:31:34.450Z,26.50
2022-09-16T10:34:04.532Z,26.50
2022-09-16T10:36:35.364Z,26.50
2022-09-16T10:39:06.135Z,26.50
2022-09-16T10:41:41.659Z,26.50
2022-09-16T10:44:17.545Z,26.50
2022-09-16T10:46:53.281Z,26.50
2022-09-16T10:49:25.609Z,26.50
2022-09-16T10:51:53.284Z,26.50
2022-09-16T10:54:28.248Z,26.50
2022-09-16T10:56:56.058Z,26.50
2022-09-16T10:59:23.761Z,26.50
2022-09-16T11:01:59.499Z,26.50
2022-09-16T11:04:50.623Z,26.50
2022-09-16T11:07:28.803Z,26.50
2022-09-16T11:10:05.939Z,26.50
2022-09-16T11:12:57.425Z,26.50
2022-09-16T11:15:37.957Z,26.50
2022-09-16T11:18:20.741Z,26.50
2022-09-16T11:21:09.505Z,26.50
2022-09-16T11:24:01.377Z,26.50
2022-09-16T11:26:37.439Z,26.50
2022-09-16T11:29:25.393Z,26.50
2022-09-16T11:32:04.679Z,26.50
2022-09-16T11:34:57.365Z,26.50
2022-09-16T11:37:31.300Z,26.50
2022-09-16T11:40:13.243Z,26.50
2022-09-16T11:42:43.887Z,26.50
2022-09-16T11:45:31.739Z,26.50
2022-09-16T11:48:24.890Z,26.50
2022-09-16T11:51:03.849Z,26.50
2022-09-16T11:54:01.711Z,26.50
2022-09-16T11:56:36.114Z,26.50
2022-09-16T11:59:12.676Z,26.50
2022-09-16T12:01:44.288Z,26.50
2022-09-16T12:04:17.020Z,26.50
2022-09-16T12:06:55.136Z,26.50
2022-09-16T12:09:30.516Z,26.50
2022-09-16T12:12:06.583Z,26.50
2022-09-16T12:14:39.713Z,26.50
2022-09-16T12:17:13.262Z,26.50
2022-09-16T12:19:47.179Z,26.50
2022-09-16T12:22:19.487Z,26.50
2022-09-16T12:24:52.666Z,26.40
2022-09-16T12:27:33.978Z,26.40
2022-09-16T12:30:05.756Z,26.40
2022-09-16T12:32:39.612Z,26.40
2022-09-16T12:35:14.955Z,26.40
2022-09-16T12:37:48.514Z,26.40
2022-09-16T12:40:24.396Z,26.40
2022-09-16T12:43:22.964Z,26.40
2022-09-16T12:46:15.194Z,26.50
2022-09-16T12:49:15.137Z,26.50
2022-09-16T12:52:13.721Z,26.50
2022-09-16T12:55:08.306Z,26.50
2022-09-16T12:57:48.517Z,26.50
2022-09-16T13:00:20.945Z,26.50
2022-09-16T13:02:53.234Z,26.50
2022-09-16T13:05:27.218Z,26.50
2022-09-16T13:07:59.546Z,26.50
2022-09-16T13:10:53.801Z,26.50
2022-09-16T13:13:30.317Z,26.50
2022-09-16T13:16:00.562Z,26.50
2022-09-16T13:18:42.369Z,26.50
2022-09-16T13:21:25.909Z,26.50
2022-09-16T13:24:02.237Z,26.40
2022-09-16T13:26:40.862Z,26.40
2022-09-16T13:29:28.706Z,26.50
2022-09-16T13:34:30.892Z,26.50
2022-09-16T13:36:58.689Z,26.50
2022-09-16T13:39:31.222Z,26.50
2022-09-16T13:42:10.248Z,26.50
2022-09-16T13:44:43.249Z,26.50
2022-09-16T13:47:17.189Z,26.60
2022-09-16T13:49:51.281Z,26.50
2022-09-16T13:52:22.063Z,26.50
2022-09-16T13:57:59.741Z,26.50
2022-09-16T14:00:33.810Z,26.40
2022-09-16T14:03:22.544Z,26.40
2022-09-16T14:06:11.110Z,26.30
2022-09-16T14:08:48.030Z,26.30
2022-09-16T14:11:22.257Z,26.20
2022-09-16T14:14:04.834Z,26.20
2022-09-16T14:16:36.216Z,26.10
2022-09-16T14:19:07.464Z,26.10
2022-09-16T14:21:38.269Z,26.00
2022-09-16T14:24:16.828Z,26.00
2022-09-16T14:26:53.010Z,26.00
2022-09-16T14:29:21.580Z,26.00
2022-09-16T14:31:50.080Z,26.00
2022-09-16T14:34:25.656Z,26.10
2022-09-16T14:36:54.941Z,26.10
2022-09-16T14:39:25.288Z,26.10
2022-09-16T14:41:56.038Z,26.10
2022-09-16T14:44:28.573Z,26.10
2022-09-16T14:47:07.532Z,26.10
2022-09-16T14:49:38.833Z,26.20
2022-09-16T14:52:19.510Z,26.20
2022-09-16T14:54:47.664Z,26.20
2022-09-16T14:57:18.167Z,26.20
2022-09-16T14:59:46.038Z,26.30
2022-09-16T15:02:21.304Z,26.30
2022-09-16T15:04:53.692Z,26.30
2022-09-16T15:07:24.453Z,26.30
2022-09-16T15:09:57.620Z,26.30
2022-09-16T15:12:30.318Z,26.30
2022-09-16T15:14:58.817Z,26.30
2022-09-16T15:17:28.876Z,26.30
2022-09-16T15:19:59.884Z,26.30
2022-09-16T15:22:29.273Z,26.30
2022-09-16T15:24:59.397Z,26.30
2022-09-16T15:27:29.227Z,26.30
2022-09-16T15:30:00.633Z,26.30
2022-09-16T15:32:31.629Z,26.30
2022-09-16T15:35:21.014Z,26.30
2022-09-16T15:37:50.469Z,26.30
2022-09-16T15:40:24.828Z,26.30
2022-09-16T15:43:21.731Z,26.30
2022-09-16T15:45:59.865Z,26.30
2022-09-16T15:48:32.111Z,26.30
2022-09-16T15:51:03.848Z,26.30
2022-09-16T15:53:46.313Z,26.30
2022-09-16T15:56:28.805Z,26.30
2022-09-16T15:59:00.425Z,26.30
2022-09-16T16:01:49.734Z,26.30
2022-09-16T16:04:26.352Z,26.30
2022-09-16T16:06:55.783Z,26.30
2022-09-16T16:09:36.536Z,26.40
2022-09-16T16:12:07.507Z,26.40
2022-09-16T16:14:35.905Z,26.40
2022-09-16T16:17:13.187Z,26.40
2022-09-16T16:19:42.336Z,26.40
2022-09-16T16:22:10.321Z,26.50
2022-09-16T16:24:39.793Z,26.50
2022-09-16T16:27:08.356Z,26.50
2022-09-16T16:29:36.171Z,26.60
2022-09-16T16:32:07.452Z,26.60
2022-09-16T16:34:36.920Z,26.60
2022-09-16T16:37:05.333Z,26.70
2022-09-16T16:39:33.144Z,26.70
2022-09-16T16:42:05.648Z,26.70
2022-09-16T16:44:33.914Z,26.80
2022-09-16T16:47:02.561Z,26.90
2022-09-16T16:49:30.332Z,26.90
2022-09-16T16:51:58.726Z,26.90
2022-09-16T16:54:27.240Z,26.90
2022-09-16T16:56:55.819Z,26.90
2022-09-16T16:59:25.521Z,26.90
2022-09-16T17:01:54.891Z,26.90
2022-09-16T17:04:22.872Z,26.90
2022-09-16T17:07:08.266Z,26.90
2022-09-16T17:09:38.573Z,26.80
2022-09-16T17:12:09.153Z,26.80
2022-09-16T17:14:38.680Z,26.90
2022-09-16T17:17:06.361Z,26.90
2022-09-16T17:19:34.051Z,26.90
2022-09-16T17:22:01.786Z,26.90
2022-09-16T17:24:29.497Z,27.00
2022-09-16T17:26:57.204Z,26.90
2022-09-16T17:29:24.895Z,27.00
2022-09-16T17:31:56.741Z,27.00
2022-09-16T17:34:26.134Z,26.90
2022-09-16T17:36:53.868Z,26.90
2022-09-16T17:39:22.614Z,26.90
2022-09-16T17:41:50.932Z,26.90
2022-09-16T17:44:19.856Z,26.80
2022-09-16T17:46:48.076Z,26.90
2022-09-16T17:49:20.101Z,26.80
2022-09-16T17:51:48.128Z,26.80
2022-09-16T17:54:16.160Z,26.80
2022-09-16T17:56:44.341Z,26.70
2022-09-16T17:59:14.068Z,26.70
2022-09-16T18:01:41.954Z,26.70
2022-09-16T18:04:09.798Z,26.70
2022-09-16T18:06:43.528Z,26.70
2022-09-16T18:09:11.580Z,26.60
2022-09-16T18:11:40.283Z,26.60
2022-09-16T18:14:11.015Z,26.60
2022-09-16T18:16:39.324Z,26.60
2022-09-16T18:19:07.705Z,26.60
2022-09-16T18:21:36.750Z,26.60
2022-09-16T18:24:10.827Z,26.60
2022-09-16T18:26:38.986Z,26.50
2022-09-16T18:29:11.561Z,26.60
2022-09-16T18:31:40.825Z,26.50
2022-09-16T18:34:08.858Z,26.50
2022-09-16T18:36:37.481Z,26.50
2022-09-16T18:39:07.877Z,26.50
2022-09-16T18:41:37.801Z,26.50
2022-09-16T18:44:07.360Z,26.50
2022-09-16T18:46:37.462Z,26.50
2022-09-16T18:49:06.139Z,26.50
2022-09-16T18:51:36.152Z,26.50
2022-09-16T18:54:07.983Z,26.50
2022-09-16T18:56:37.962Z,26.50
2022-09-16T18:59:23.981Z,26.50
2022-09-16T19:01:53.690Z,26.50
2022-09-16T19:04:23.522Z,26.50
2022-09-16T19:06:53.569Z,26.50
2022-09-16T19:09:24.689Z,26.50
2022-09-16T19:11:54.449Z,26.50
2022-09-16T19:14:24.482Z,26.50
2022-09-16T19:16:52.556Z,26.40
2022-09-16T19:19:20.961Z,26.50
2022-09-16T19:21:49.304Z,26.40
2022-09-16T19:24:19.175Z,26.40
2022-09-16T19:26:49.954Z,26.40
2022-09-16T19:29:18.450Z,26.40
2022-09-16T19:31:48.197Z,26.40
2022-09-16T19:34:17.069Z,26.50
2022-09-16T19:36:45.376Z,26.40
2022-09-16T19:39:13.797Z,26.40
2022-09-16T19:41:42.418Z,26.40
2022-09-16T19:44:14.630Z,26.40
2022-09-16T19:46:43.228Z,26.40
2022-09-16T19:49:15.099Z,26.40
2022-09-16T19:51:43.081Z,26.40
2022-09-16T19:54:10.932Z,26.40
2022-09-16T19:56:38.696Z,26.40
2022-09-16T19:59:07.204Z,26.40
2022-09-16T20:01:37.664Z,26.40
2022-09-16T20:04:08.304Z,26.40
2022-09-16T20:06:37.683Z,26.40
2022-09-16T20:09:06.984Z,26.40
2022-09-16T20:11:37.153Z,26.40
2022-09-16T20:14:07.692Z,26.40
2022-09-16T20:16:39.147Z,26.40
2022-09-16T20:19:08.777Z,26.30
2022-09-16T20:21:37.713Z,26.30
2022-09-16T20:24:07.690Z,26.30
2022-09-16T20:26:36.023Z,26.30
2022-09-16T20:29:05.137Z,26.30
2022-09-16T20:31:34.777Z,26.30
2022-09-16T20:34:05.130Z,26.30
2022-09-16T20:36:37.206Z,26.30
2022-09-16T20:39:06.179Z,26.30
2022-09-16T20:41:35.365Z,26.30
2022-09-16T20:44:04.062Z,26.30
2022-09-16T20:46:33.087Z,26.30
2022-09-16T20:49:04.988Z,26.30
2022-09-16T20:51:34.208Z,26.30
2022-09-16T20:54:07.492Z,26.20
2022-09-16T20:56:38.332Z,26.20
2022-09-16T20:59:08.004Z,26.20
2022-09-16T21:01:37.109Z,26.20
2022-09-16T21:04:07.738Z,26.20
2022-09-16T21:06:36.578Z,26.20
2022-09-16T21:09:08.738Z,26.20
2022-09-16T21:11:37.250Z,26.20
2022-09-16T21:14:07.443Z,26.20
2022-09-16T21:16:36.520Z,26.20
2022-09-16T21:19:09.051Z,26.20
2022-09-16T21:21:38.140Z,26.20
2022-09-16T21:24:07.072Z,26.20
2022-09-16T21:26:36.630Z,26.20
2022-09-16T21:29:05.932Z,26.20
2022-09-16T21:31:34.765Z,26.20
2022-09-16T21:34:02.964Z,26.20
2022-09-16T21:36:32.122Z,26.20
2022-09-16T21:39:00.997Z,26.10
2022-09-16T21:41:28.819Z,26.10
2022-09-16T21:43:58.591Z,26.10
2022-09-16T21:46:28.977Z,26.10
2022-09-16T21:48:58.298Z,26.10
2022-09-16T21:51:26.035Z,26.10
2022-09-16T21:53:56.150Z,26.10
2022-09-16T21:56:24.582Z,26.10
2022-09-16T21:58:56.077Z,26.10
2022-09-16T22:01:25.704Z,26.10
2022-09-16T22:03:56.102Z,26.10
2022-09-16T22:06:25.438Z,26.10
2022-09-16T22:08:54.927Z,26.10
2022-09-16T22:11:26.901Z,26.10
2022-09-16T22:13:55.709Z,26.10
2022-09-16T22:16:27.872Z,26.10
2022-09-16T22:18:56.644Z,26.10
2022-09-16T22:21:25.645Z,26.10
2022-09-16T22:23:54.670Z,26.10
2022-09-16T22:26:24.385Z,26.10
2022-09-16T22:28:52.471Z,26.10
2022-09-16T22:31:22.650Z,26.10
2022-09-16T22:33:52.110Z,26.10
2022-09-16T22:36:21.466Z,26.10
2022-09-16T22:38:50.065Z,26.10
2022-09-16T22:41:19.136Z,26.10
2022-09-16T22:43:49.008Z,26.10
2022-09-16T22:46:18.676Z,26.10
2022-09-16T22:48:47.188Z,26.10
2022-09-16T22:51:16.072Z,26.10
2022-09-16T22:53:44.317Z,26.10
2022-09-16T22:56:15.242Z,26.10
2022-09-16T22:58:44.501Z,26.10
2022-09-16T23:01:14.272Z,26.10
2022-09-16T23:03:42.811Z,26.10
2022-09-16T23:06:12.565Z,26.10
2022-09-16T23:08:42.727Z,26.10
2022-09-16T23:11:14.484Z,26.10
2022-09-16T23:13:45.129Z,26.10
2022-09-16T23:16:14.958Z,26.10
2022-09-16T23:18:43.839Z,26.10
2022-09-16T23:21:13.401Z,26.10
2022-09-16T23:23:43.280Z,26.10
2022-09-16T23:26:12.620Z,26.10
2022-09-16T23:28:40.367Z,26.10
2022-09-16T23:31:12.053Z,26.10
2022-09-16T23:33:40.221Z,26.10
2022-09-16T23:36:09.567Z,26.10
2022-09-16T23:38:39.140Z,26.00
2022-09-16T23:41:07.948Z,26.00
2022-09-16T23:43:36.089Z,26.00
2022-09-16T23:46:04.350Z,26.00
2022-09-16T23:48:34.976Z,26.00
2022-09-16T23:51:03.378Z,26.00
2022-09-16T23:53:31.503Z,26.00
2022-09-16T23:55:59.177Z,26.00
2022-09-16T23:58:26.873Z,26.00
